aviador You're here:

PACV Decoded Metar

CORDOVA in AK, USA
Report Time2017-09-24 22:53:00
UTC Time2017-09-24 23:04:44
Flight Rules mvfr MVFR
Wind130° at 07 kt
W.Decomp.*RWY 09: 6.5 kt HW 2.5 kt RCW
RWY 16: 4.6 kt HW 5.3 kt LCW
W.Rank130° ranks 9
Current wind is above 130° avg. (5.9)
Visibility8047 m
Phenomena:Light Rain
Mist
Clouds:Scattered 015 Hf
Broken 031 Hf
Overcast 050 Hf
Expected CloudBase > 800 ft AGL from Temp-Dew spread
Ceiling3,100 ft
Temp10°C (ISA -5)
Dew Point08°C (88% RH)
AAT7.0°C
QNH1004 hPa
Density Alt-98 ft
Elevation39 ft
Report Wrong Elevation
Raw Report
PACV 242253Z 13007KT 5SM -RA BR SCT015 BKN031 OVC050 10/08 A2966
RMK AO2 RAB2155E14B33 SLP044 P0001 T01000083=

Extra information for PACV:More info

Metar Taf Metar & Taf Last 4 Metars F.Rules Stats Wind Profile Meteogram Temp Stats Airport Information Weather charts Add Link Nearby VenuesMetar ALERT Operation Metar Decoded Social comments

AIRNAV info for PACV